< < Back
Terminal Aerodrome Forecast


Current Version              Previous Versions:   1  2  3  4  5  6  7  8  9  

Terminal Aerodrome Forecast

817
FTUS42 KCHS 271121
TAFSAV
TAF
KSAV 271121Z 2712/2812 23004KT P6SM FEW250
     FM271700 24008KT P6SM SCT050
     FM280000 22005KT P6SM FEW250=

Latest METAR

704
SAUS80 KWBC 271300
MTRSAV
METAR KSAV 271253Z 26008KT 10SM FEW250 28/23 A3008 RMK AO2 SLP183
T02830228


USA.gov is the U.S. government's official web portal to all federal, state and local government web resources and services.